sensor_id;sensor_type;location;lat;lon;timestamp;temperature;humidity
61412;DHT22;47278;49.732;7.690;2023-10-09T00:01:25;11.70;99.90
61412;DHT22;47278;49.732;7.690;2023-10-09T00:03:51;11.70;99.90
61412;DHT22;47278;49.732;7.690;2023-10-09T00:06:18;11.80;99.90
61412;DHT22;47278;49.732;7.690;2023-10-09T00:08:55;11.80;99.90
61412;DHT22;47278;49.732;7.690;2023-10-09T00:11:22;11.80;99.90
61412;DHT22;47278;49.732;7.690;2023-10-09T00:13:52;11.80;99.90
61412;DHT22;47278;49.732;7.690;2023-10-09T00:16:23;12.10;99.90
61412;DHT22;47278;49.732;7.690;2023-10-09T00:19:01;12.00;99.90
61412;DHT22;47278;49.732;7.690;2023-10-09T00:21:48;11.80;99.90
61412;DHT22;47278;49.732;7.690;2023-10-09T00:24:14;12.00;99.90
61412;DHT22;47278;49.732;7.690;2023-10-09T00:26:48;12.10;99.90
61412;DHT22;47278;49.732;7.690;2023-10-09T00:29:14;11.70;99.90
61412;DHT22;47278;49.732;7.690;2023-10-09T00:31:42;11.70;99.90
61412;DHT22;47278;49.732;7.690;2023-10-09T00:34:16;11.60;99.90
61412;DHT22;47278;49.732;7.690;2023-10-09T00:36:48;11.80;99.90
61412;DHT22;47278;49.732;7.690;2023-10-09T00:39:19;12.00;99.90
61412;DHT22;47278;49.732;7.690;2023-10-09T00:41:59;13.40;99.90
61412;DHT22;47278;49.732;7.690;2023-10-09T00:44:26;12.00;99.90
61412;DHT22;47278;49.732;7.690;2023-10-09T00:47:06;12.10;99.90
61412;DHT22;47278;49.732;7.690;2023-10-09T00:49:58;12.00;99.90
61412;DHT22;47278;49.732;7.690;2023-10-09T00:52:29;12.00;99.90
61412;DHT22;47278;49.732;7.690;2023-10-09T00:55:02;11.90;99.90
61412;DHT22;47278;49.732;7.690;2023-10-09T00:58:02;12.00;99.90
61412;DHT22;47278;49.732;7.690;2023-10-09T01:00:34;12.20;99.90
61412;DHT22;47278;49.732;7.690;2023-10-09T01:03:09;12.30;99.90
61412;DHT22;47278;49.732;7.690;2023-10-09T01:05:44;12.40;99.90
61412;DHT22;47278;49.732;7.690;2023-10-09T01:08:28;12.40;99.90
61412;DHT22;47278;49.732;7.690;2023-10-09T01:10:56;12.40;99.90
61412;DHT22;47278;49.732;7.690;2023-10-09T01:13:24;12.40;99.90
61412;DHT22;47278;49.732;7.690;2023-10-09T01:16:06;12.40;99.90
61412;DHT22;47278;49.732;7.690;2023-10-09T01:18:38;12.40;99.90
61412;DHT22;47278;49.732;7.690;2023-10-09T01:21:06;12.50;99.90
61412;DHT22;47278;49.732;7.690;2023-10-09T01:23:31;12.50;99.90
61412;DHT22;47278;49.732;7.690;2023-10-09T01:25:57;12.30;99.90
61412;DHT22;47278;49.732;7.690;2023-10-09T01:28:23;12.30;99.90
61412;DHT22;47278;49.732;7.690;2023-10-09T01:30:50;12.10;99.90
61412;DHT22;47278;49.732;7.690;2023-10-09T01:33:16;12.10;99.90
61412;DHT22;47278;49.732;7.690;2023-10-09T01:35:53;12.10;99.90
61412;DHT22;47278;49.732;7.690;2023-10-09T01:38:25;11.90;99.90
61412;DHT22;47278;49.732;7.690;2023-10-09T01:41:06;11.90;99.90
61412;DHT22;47278;49.732;7.690;2023-10-09T01:43:33;12.00;99.90
61412;DHT22;47278;49.732;7.690;2023-10-09T01:46:00;12.00;99.90
61412;DHT22;47278;49.732;7.690;2023-10-09T01:48:26;12.00;99.90
61412;DHT22;47278;49.732;7.690;2023-10-09T01:50:52;12.00;99.90
61412;DHT22;47278;49.732;7.690;2023-10-09T01:53:19;12.00;99.90
61412;DHT22;47278;49.732;7.690;2023-10-09T01:55:47;12.00;99.90
61412;DHT22;47278;49.732;7.690;2023-10-09T01:58:13;11.90;99.90
61412;DHT22;47278;49.732;7.690;2023-10-09T02:00:47;11.90;99.90
61412;DHT22;47278;49.732;7.690;2023-10-09T02:03:31;11.90;99.90
61412;DHT22;47278;49.732;7.690;2023-10-09T02:06:01;11.90;99.90
61412;DHT22;47278;49.732;7.690;2023-10-09T02:08:42;11.90;99.90
61412;DHT22;47278;49.732;7.690;2023-10-09T02:11:15;12.10;99.90
61412;DHT22;47278;49.732;7.690;2023-10-09T02:13:50;11.90;99.90
61412;DHT22;47278;49.732;7.690;2023-10-09T02:16:19;11.90;99.90
61412;DHT22;47278;49.732;7.690;2023-10-09T02:18:53;12.00;99.90
61412;DHT22;47278;49.732;7.690;2023-10-09T02:21:21;11.90;99.90
61412;DHT22;47278;49.732;7.690;2023-10-09T02:24:02;11.90;99.90
61412;DHT22;47278;49.732;7.690;2023-10-09T02:26:31;12.00;99.90
61412;DHT22;47278;49.732;7.690;2023-10-09T02:29:25;11.90;99.90
61412;DHT22;47278;49.732;7.690;2023-10-09T02:31:52;11.90;99.90
61412;DHT22;47278;49.732;7.690;2023-10-09T02:34:17;12.00;99.90
61412;DHT22;47278;49.732;7.690;2023-10-09T02:36:52;12.00;99.90
61412;DHT22;47278;49.732;7.690;2023-10-09T02:39:31;11.90;99.90
61412;DHT22;47278;49.732;7.690;2023-10-09T02:42:04;12.00;99.90
61412;DHT22;47278;49.732;7.690;2023-10-09T02:44:44;12.10;99.90
61412;DHT22;47278;49.732;7.690;2023-10-09T02:47:15;12.10;99.90
61412;DHT22;47278;49.732;7.690;2023-10-09T02:49:46;12.20;99.90
61412;DHT22;47278;49.732;7.690;2023-10-09T02:52:13;12.30;99.90
61412;DHT22;47278;49.732;7.690;2023-10-09T02:54:44;12.30;99.90
61412;DHT22;47278;49.732;7.690;2023-10-09T02:57:12;12.30;99.90
61412;DHT22;47278;49.732;7.690;2023-10-09T02:59:53;12.40;99.90
61412;DHT22;47278;49.732;7.690;2023-10-09T03:02:18;12.40;99.90
61412;DHT22;47278;49.732;7.690;2023-10-09T03:04:44;12.30;99.90
61412;DHT22;47278;49.732;7.690;2023-10-09T03:07:10;12.30;99.90
61412;DHT22;47278;49.732;7.690;2023-10-09T03:09:39;12.30;99.90
61412;DHT22;47278;49.732;7.690;2023-10-09T03:12:06;12.30;99.90
61412;DHT22;47278;49.732;7.690;2023-10-09T03:14:40;12.30;99.90
61412;DHT22;47278;49.732;7.690;2023-10-09T03:17:06;12.40;99.90
61412;DHT22;47278;49.732;7.690;2023-10-09T03:19:36;12.30;99.90
61412;DHT22;47278;49.732;7.690;2023-10-09T03:22:05;12.30;99.90
61412;DHT22;47278;49.732;7.690;2023-10-09T03:24:34;12.20;99.90
61412;DHT22;47278;49.732;7.690;2023-10-09T03:27:00;12.00;99.90
61412;DHT22;47278;49.732;7.690;2023-10-09T03:29:26;11.80;99.90
61412;DHT22;47278;49.732;7.690;2023-10-09T03:31:52;11.70;99.90
61412;DHT22;47278;49.732;7.690;2023-10-09T03:34:18;11.60;99.90
61412;DHT22;47278;49.732;7.690;2023-10-09T03:36:47;11.60;99.90
61412;DHT22;47278;49.732;7.690;2023-10-09T03:39:16;11.50;99.90
61412;DHT22;47278;49.732;7.690;2023-10-09T03:42:00;11.60;99.90
61412;DHT22;47278;49.732;7.690;2023-10-09T03:44:30;11.60;99.90
61412;DHT22;47278;49.732;7.690;2023-10-09T03:46:56;11.60;99.90
61412;DHT22;47278;49.732;7.690;2023-10-09T03:49:21;11.70;99.90
61412;DHT22;47278;49.732;7.690;2023-10-09T03:51:53;11.70;99.90
61412;DHT22;47278;49.732;7.690;2023-10-09T03:54:20;11.70;99.90
61412;DHT22;47278;49.732;7.690;2023-10-09T03:56:47;11.70;99.90
61412;DHT22;47278;49.732;7.690;2023-10-09T03:59:16;11.80;99.90
61412;DHT22;47278;49.732;7.690;2023-10-09T04:01:42;12.00;99.90
61412;DHT22;47278;49.732;7.690;2023-10-09T04:04:09;12.00;99.90
61412;DHT22;47278;49.732;7.690;2023-10-09T04:06:39;11.80;99.90
61412;DHT22;47278;49.732;7.690;2023-10-09T04:09:05;11.80;99.90
61412;DHT22;47278;49.732;7.690;2023-10-09T04:11:43;11.80;99.90
61412;DHT22;47278;49.732;7.690;2023-10-09T04:14:14;11.60;99.90
61412;DHT22;47278;49.732;7.690;2023-10-09T04:17:00;11.60;99.90
61412;DHT22;47278;49.732;7.690;2023-10-09T04:19:29;11.60;99.90
61412;DHT22;47278;49.732;7.690;2023-10-09T04:22:06;11.50;99.90
61412;DHT22;47278;49.732;7.690;2023-10-09T04:24:34;11.50;99.90
61412;DHT22;47278;49.732;7.690;2023-10-09T04:27:09;11.50;99.90
61412;DHT22;47278;49.732;7.690;2023-10-09T04:29:35;11.50;99.90
61412;DHT22;47278;49.732;7.690;2023-10-09T04:32:04;11.50;99.90
61412;DHT22;47278;49.732;7.690;2023-10-09T04:34:33;11.50;99.90
61412;DHT22;47278;49.732;7.690;2023-10-09T04:37:03;11.40;99.90
61412;DHT22;47278;49.732;7.690;2023-10-09T04:39:41;11.30;99.90
61412;DHT22;47278;49.732;7.690;2023-10-09T04:42:27;11.30;99.90
61412;DHT22;47278;49.732;7.690;2023-10-09T04:45:02;11.40;99.90
61412;DHT22;47278;49.732;7.690;2023-10-09T04:47:30;11.40;99.90
61412;DHT22;47278;49.732;7.690;2023-10-09T04:50:03;11.40;99.90
61412;DHT22;47278;49.732;7.690;2023-10-09T04:52:35;11.30;99.90
61412;DHT22;47278;49.732;7.690;2023-10-09T04:55:01;11.40;99.90
61412;DHT22;47278;49.732;7.690;2023-10-09T04:57:35;11.40;99.90
61412;DHT22;47278;49.732;7.690;2023-10-09T05:00:08;11.40;99.90
61412;DHT22;47278;49.732;7.690;2023-10-09T05:02:48;11.40;99.90
61412;DHT22;47278;49.732;7.690;2023-10-09T05:05:20;11.40;99.90
61412;DHT22;47278;49.732;7.690;2023-10-09T05:08:05;11.40;99.90
61412;DHT22;47278;49.732;7.690;2023-10-09T05:10:45;11.40;99.90
61412;DHT22;47278;49.732;7.690;2023-10-09T05:13:31;11.40;99.90
61412;DHT22;47278;49.732;7.690;2023-10-09T05:16:13;11.20;99.90
61412;DHT22;47278;49.732;7.690;2023-10-09T05:18:41;11.30;99.90
61412;DHT22;47278;49.732;7.690;2023-10-09T05:21:07;11.20;99.90
61412;DHT22;47278;49.732;7.690;2023-10-09T05:23:41;11.20;99.90
61412;DHT22;47278;49.732;7.690;2023-10-09T05:26:17;11.10;99.90
61412;DHT22;47278;49.732;7.690;2023-10-09T05:29:01;11.10;99.90
61412;DHT22;47278;49.732;7.690;2023-10-09T05:31:45;11.10;99.90
61412;DHT22;47278;49.732;7.690;2023-10-09T05:34:20;11.10;99.90
61412;DHT22;47278;49.732;7.690;2023-10-09T05:36:47;11.20;99.90
61412;DHT22;47278;49.732;7.690;2023-10-09T05:39:13;11.30;99.90
61412;DHT22;47278;49.732;7.690;2023-10-09T05:42:06;11.50;99.90
61412;DHT22;47278;49.732;7.690;2023-10-09T05:44:43;12.10;99.90
61412;DHT22;47278;49.732;7.690;2023-10-09T05:47:12;11.90;99.90
61412;DHT22;47278;49.732;7.690;2023-10-09T05:49:56;11.70;99.90
61412;DHT22;47278;49.732;7.690;2023-10-09T05:52:33;11.70;99.90
61412;DHT22;47278;49.732;7.690;2023-10-09T05:55:19;11.80;99.90
61412;DHT22;47278;49.732;7.690;2023-10-09T05:57:54;12.00;99.90
61412;DHT22;47278;49.732;7.690;2023-10-09T06:00:38;12.10;99.90
61412;DHT22;47278;49.732;7.690;2023-10-09T06:03:23;12.10;99.90
61412;DHT22;47278;49.732;7.690;2023-10-09T06:05:54;12.00;99.90
61412;DHT22;47278;49.732;7.690;2023-10-09T06:08:22;12.00;99.90
61412;DHT22;47278;49.732;7.690;2023-10-09T06:11:10;11.90;99.90
61412;DHT22;47278;49.732;7.690;2023-10-09T06:14:17;12.00;99.90
61412;DHT22;47278;49.732;7.690;2023-10-09T06:16:56;12.10;99.90
61412;DHT22;47278;49.732;7.690;2023-10-09T06:19:21;12.10;99.90
61412;DHT22;47278;49.732;7.690;2023-10-09T06:21:47;12.00;99.90
61412;DHT22;47278;49.732;7.690;2023-10-09T06:26:44;12.10;99.90
61412;DHT22;47278;49.732;7.690;2023-10-09T06:29:19;12.10;99.90
61412;DHT22;47278;49.732;7.690;2023-10-09T06:32:03;12.00;99.90
61412;DHT22;47278;49.732;7.690;2023-10-09T06:34:42;12.00;99.90
61412;DHT22;47278;49.732;7.690;2023-10-09T06:37:10;12.10;99.90
61412;DHT22;47278;49.732;7.690;2023-10-09T06:39:51;12.20;99.90
61412;DHT22;47278;49.732;7.690;2023-10-09T06:45:09;12.60;99.90
61412;DHT22;47278;49.732;7.690;2023-10-09T06:47:43;12.60;99.90
61412;DHT22;47278;49.732;7.690;2023-10-09T06:50:30;12.70;99.90
61412;DHT22;47278;49.732;7.690;2023-10-09T06:53:14;12.70;99.90
61412;DHT22;47278;49.732;7.690;2023-10-09T06:55:39;12.60;99.90
61412;DHT22;47278;49.732;7.690;2023-10-09T06:58:14;12.50;99.90
61412;DHT22;47278;49.732;7.690;2023-10-09T07:00:50;12.50;99.90
61412;DHT22;47278;49.732;7.690;2023-10-09T07:03:35;12.60;99.90
61412;DHT22;47278;49.732;7.690;2023-10-09T07:06:07;12.60;99.90
61412;DHT22;47278;49.732;7.690;2023-10-09T07:08:56;12.60;99.90
61412;DHT22;47278;49.732;7.690;2023-10-09T07:11:34;12.70;99.90
61412;DHT22;47278;49.732;7.690;2023-10-09T07:17:00;13.00;99.90
61412;DHT22;47278;49.732;7.690;2023-10-09T07:19:26;13.00;99.90
61412;DHT22;47278;49.732;7.690;2023-10-09T07:22:08;13.10;99.90
61412;DHT22;47278;49.732;7.690;2023-10-09T07:24:49;13.10;99.90
61412;DHT22;47278;49.732;7.690;2023-10-09T07:27:28;13.10;99.90
61412;DHT22;47278;49.732;7.690;2023-10-09T07:30:14;13.20;99.90
61412;DHT22;47278;49.732;7.690;2023-10-09T07:33:02;13.20;99.90
61412;DHT22;47278;49.732;7.690;2023-10-09T07:38:11;13.40;99.90
61412;DHT22;47278;49.732;7.690;2023-10-09T07:40:37;13.40;99.90
61412;DHT22;47278;49.732;7.690;2023-10-09T07:43:24;13.60;99.90
61412;DHT22;47278;49.732;7.690;2023-10-09T07:46:11;13.60;99.90
61412;DHT22;47278;49.732;7.690;2023-10-09T07:48:55;13.60;99.90
61412;DHT22;47278;49.732;7.690;2023-10-09T07:51:22;13.70;99.90
61412;DHT22;47278;49.732;7.690;2023-10-09T07:53:57;13.80;99.90
61412;DHT22;47278;49.732;7.690;2023-10-09T07:56:26;13.80;99.90
61412;DHT22;47278;49.732;7.690;2023-10-09T07:58:55;13.90;99.90
61412;DHT22;47278;49.732;7.690;2023-10-09T08:01:25;14.00;99.90
61412;DHT22;47278;49.732;7.690;2023-10-09T08:03:54;14.10;99.90
61412;DHT22;47278;49.732;7.690;2023-10-09T08:06:23;14.20;99.90
61412;DHT22;47278;49.732;7.690;2023-10-09T08:09:05;14.30;99.90
61412;DHT22;47278;49.732;7.690;2023-10-09T08:11:47;14.40;99.90
61412;DHT22;47278;49.732;7.690;2023-10-09T08:14:31;14.50;99.90
61412;DHT22;47278;49.732;7.690;2023-10-09T08:17:00;14.60;99.90
61412;DHT22;47278;49.732;7.690;2023-10-09T08:19:47;14.70;99.90
61412;DHT22;47278;49.732;7.690;2023-10-09T08:22:23;14.80;99.90
61412;DHT22;47278;49.732;7.690;2023-10-09T08:24:49;15.00;99.90
61412;DHT22;47278;49.732;7.690;2023-10-09T08:30:02;12.30;99.90
61412;DHT22;47278;49.732;7.690;2023-10-09T08:32:44;15.30;99.90
61412;DHT22;47278;49.732;7.690;2023-10-09T08:35:26;15.30;99.90
61412;DHT22;47278;49.732;7.690;2023-10-09T08:37:57;15.40;99.90
61412;DHT22;47278;49.732;7.690;2023-10-09T08:40:42;15.50;99.90
61412;DHT22;47278;49.732;7.690;2023-10-09T08:43:18;15.40;99.90
61412;DHT22;47278;49.732;7.690;2023-10-09T08:48:12;15.80;99.90
61412;DHT22;47278;49.732;7.690;2023-10-09T08:50:41;15.90;99.90
61412;DHT22;47278;49.732;7.690;2023-10-09T08:53:09;15.90;99.90
61412;DHT22;47278;49.732;7.690;2023-10-09T08:55:38;16.10;99.90
61412;DHT22;47278;49.732;7.690;2023-10-09T08:58:05;16.40;99.90
61412;DHT22;47278;49.732;7.690;2023-10-09T09:00:46;16.60;99.90
61412;DHT22;47278;49.732;7.690;2023-10-09T09:03:15;17.00;99.90
61412;DHT22;47278;49.732;7.690;2023-10-09T09:05:47;17.10;99.90
61412;DHT22;47278;49.732;7.690;2023-10-09T09:08:25;17.30;99.90
61412;DHT22;47278;49.732;7.690;2023-10-09T09:11:01;17.30;99.90
61412;DHT22;47278;49.732;7.690;2023-10-09T09:13:43;17.50;99.90
61412;DHT22;47278;49.732;7.690;2023-10-09T09:16:18;17.60;99.90
61412;DHT22;47278;49.732;7.690;2023-10-09T09:21:18;17.60;99.90
61412;DHT22;47278;49.732;7.690;2023-10-09T09:23:56;17.60;99.90
61412;DHT22;47278;49.732;7.690;2023-10-09T09:26:38;17.60;99.90
61412;DHT22;47278;49.732;7.690;2023-10-09T09:29:10;17.70;99.90
61412;DHT22;47278;49.732;7.690;2023-10-09T09:31:36;17.70;99.90
61412;DHT22;47278;49.732;7.690;2023-10-09T09:34:07;17.70;99.90
61412;DHT22;47278;49.732;7.690;2023-10-09T09:36:57;17.70;99.90
61412;DHT22;47278;49.732;7.690;2023-10-09T09:39:25;17.70;99.90
61412;DHT22;47278;49.732;7.690;2023-10-09T09:42:00;17.60;99.90
61412;DHT22;47278;49.732;7.690;2023-10-09T09:44:39;17.70;99.90
61412;DHT22;47278;49.732;7.690;2023-10-09T09:47:14;17.80;99.90
61412;DHT22;47278;49.732;7.690;2023-10-09T09:49:48;18.00;99.90
61412;DHT22;47278;49.732;7.690;2023-10-09T09:52:16;18.20;99.90
61412;DHT22;47278;49.732;7.690;2023-10-09T09:54:43;18.40;99.90
61412;DHT22;47278;49.732;7.690;2023-10-09T09:57:09;18.40;99.90
61412;DHT22;47278;49.732;7.690;2023-10-09T09:59:39;18.40;99.90
61412;DHT22;47278;49.732;7.690;2023-10-09T10:02:05;18.50;99.90
61412;DHT22;47278;49.732;7.690;2023-10-09T10:04:34;18.60;99.90
61412;DHT22;47278;49.732;7.690;2023-10-09T10:07:04;18.70;99.90
61412;DHT22;47278;49.732;7.690;2023-10-09T10:09:35;18.90;99.90
61412;DHT22;47278;49.732;7.690;2023-10-09T10:12:04;18.90;99.90
61412;DHT22;47278;49.732;7.690;2023-10-09T10:17:15;19.20;99.90
61412;DHT22;47278;49.732;7.690;2023-10-09T10:22:27;19.30;99.90
61412;DHT22;47278;49.732;7.690;2023-10-09T10:24:53;19.40;99.90
61412;DHT22;47278;49.732;7.690;2023-10-09T10:27:20;19.30;99.90
61412;DHT22;47278;49.732;7.690;2023-10-09T10:30:27;19.30;99.90
61412;DHT22;47278;49.732;7.690;2023-10-09T10:32:59;19.40;99.90
61412;DHT22;47278;49.732;7.690;2023-10-09T10:35:43;21.60;99.90
61412;DHT22;47278;49.732;7.690;2023-10-09T10:40:50;19.90;99.90
61412;DHT22;47278;49.732;7.690;2023-10-09T10:43:22;20.00;99.90
61412;DHT22;47278;49.732;7.690;2023-10-09T10:46:01;19.90;99.90
61412;DHT22;47278;49.732;7.690;2023-10-09T10:48:27;19.80;99.90
61412;DHT22;47278;49.732;7.690;2023-10-09T10:51:03;16.80;99.90
61412;DHT22;47278;49.732;7.690;2023-10-09T10:53:29;19.80;99.90
61412;DHT22;47278;49.732;7.690;2023-10-09T10:56:01;19.80;99.90
61412;DHT22;47278;49.732;7.690;2023-10-09T10:58:53;19.70;99.90
61412;DHT22;47278;49.732;7.690;2023-10-09T11:01:31;20.50;99.90
61412;DHT22;47278;49.732;7.690;2023-10-09T11:04:16;19.60;99.90
61412;DHT22;47278;49.732;7.690;2023-10-09T11:06:53;19.80;99.90
61412;DHT22;47278;49.732;7.690;2023-10-09T11:09:25;19.70;99.90
61412;DHT22;47278;49.732;7.690;2023-10-09T11:12:09;19.70;99.90
61412;DHT22;47278;49.732;7.690;2023-10-09T11:14:47;18.70;99.90
61412;DHT22;47278;49.732;7.690;2023-10-09T11:17:34;19.80;99.90
61412;DHT22;47278;49.732;7.690;2023-10-09T11:20:02;20.00;99.90
61412;DHT22;47278;49.732;7.690;2023-10-09T11:22:48;20.20;99.90
61412;DHT22;47278;49.732;7.690;2023-10-09T11:25:33;20.40;99.90
61412;DHT22;47278;49.732;7.690;2023-10-09T11:27:59;20.80;99.90
61412;DHT22;47278;49.732;7.690;2023-10-09T11:30:40;20.80;99.90
61412;DHT22;47278;49.732;7.690;2023-10-09T11:33:06;21.00;99.90
61412;DHT22;47278;49.732;7.690;2023-10-09T11:35:39;20.90;99.90
61412;DHT22;47278;49.732;7.690;2023-10-09T11:38:08;21.10;99.90
61412;DHT22;47278;49.732;7.690;2023-10-09T11:40:46;21.20;99.90
61412;DHT22;47278;49.732;7.690;2023-10-09T11:43:18;21.20;99.90
61412;DHT22;47278;49.732;7.690;2023-10-09T11:45:49;21.00;99.90
61412;DHT22;47278;49.732;7.690;2023-10-09T11:48:21;20.90;99.90
61412;DHT22;47278;49.732;7.690;2023-10-09T11:50:58;20.90;99.90
61412;DHT22;47278;49.732;7.690;2023-10-09T11:53:39;22.70;99.90
61412;DHT22;47278;49.732;7.690;2023-10-09T11:56:05;22.40;99.90
61412;DHT22;47278;49.732;7.690;2023-10-09T11:58:33;22.70;99.90
61412;DHT22;47278;49.732;7.690;2023-10-09T12:00:59;22.20;99.90
61412;DHT22;47278;49.732;7.690;2023-10-09T12:03:28;22.60;99.90
61412;DHT22;47278;49.732;7.690;2023-10-09T12:06:04;22.30;99.90
61412;DHT22;47278;49.732;7.690;2023-10-09T12:08:33;22.30;99.90
61412;DHT22;47278;49.732;7.690;2023-10-09T12:10:59;22.20;99.90
61412;DHT22;47278;49.732;7.690;2023-10-09T12:13:33;22.50;99.90
61412;DHT22;47278;49.732;7.690;2023-10-09T12:15:59;23.20;99.90
61412;DHT22;47278;49.732;7.690;2023-10-09T12:18:24;23.60;99.90
61412;DHT22;47278;49.732;7.690;2023-10-09T12:20:50;23.20;99.90
61412;DHT22;47278;49.732;7.690;2023-10-09T12:23:17;23.10;99.90
61412;DHT22;47278;49.732;7.690;2023-10-09T12:25:42;23.30;99.90
61412;DHT22;47278;49.732;7.690;2023-10-09T12:28:10;23.20;99.90
61412;DHT22;47278;49.732;7.690;2023-10-09T12:30:37;23.20;99.90
61412;DHT22;47278;49.732;7.690;2023-10-09T12:33:05;23.40;99.90
61412;DHT22;47278;49.732;7.690;2023-10-09T12:35:38;24.00;99.90
61412;DHT22;47278;49.732;7.690;2023-10-09T12:38:05;24.30;99.90
61412;DHT22;47278;49.732;7.690;2023-10-09T12:40:35;24.10;99.90
61412;DHT22;47278;49.732;7.690;2023-10-09T12:43:01;24.00;99.90
61412;DHT22;47278;49.732;7.690;2023-10-09T12:45:27;23.90;99.90
61412;DHT22;47278;49.732;7.690;2023-10-09T12:47:56;23.80;99.90
61412;DHT22;47278;49.732;7.690;2023-10-09T12:50:27;23.80;99.90
61412;DHT22;47278;49.732;7.690;2023-10-09T12:52:56;23.80;99.90
61412;DHT22;47278;49.732;7.690;2023-10-09T12:55:22;23.90;99.90
61412;DHT22;47278;49.732;7.690;2023-10-09T12:58:00;24.10;99.90
61412;DHT22;47278;49.732;7.690;2023-10-09T13:00:27;24.20;99.90
61412;DHT22;47278;49.732;7.690;2023-10-09T13:02:52;24.10;99.90
61412;DHT22;47278;49.732;7.690;2023-10-09T13:05:18;24.10;99.90
61412;DHT22;47278;49.732;7.690;2023-10-09T13:07:53;24.20;99.90
61412;DHT22;47278;49.732;7.690;2023-10-09T13:10:20;24.40;99.90
61412;DHT22;47278;49.732;7.690;2023-10-09T13:12:49;24.40;99.90
61412;DHT22;47278;49.732;7.690;2023-10-09T13:15:20;24.10;99.90
61412;DHT22;47278;49.732;7.690;2023-10-09T13:17:46;23.90;99.90
61412;DHT22;47278;49.732;7.690;2023-10-09T13:20:12;24.10;99.90
61412;DHT22;47278;49.732;7.690;2023-10-09T13:22:41;24.40;99.90
61412;DHT22;47278;49.732;7.690;2023-10-09T13:25:10;24.40;99.90
61412;DHT22;47278;49.732;7.690;2023-10-09T13:27:45;24.60;99.90
61412;DHT22;47278;49.732;7.690;2023-10-09T13:30:19;24.80;99.90
61412;DHT22;47278;49.732;7.690;2023-10-09T13:32:50;24.80;99.90
61412;DHT22;47278;49.732;7.690;2023-10-09T13:35:18;24.80;99.90
61412;DHT22;47278;49.732;7.690;2023-10-09T13:37:45;25.00;99.90
61412;DHT22;47278;49.732;7.690;2023-10-09T13:40:20;25.30;99.90
61412;DHT22;47278;49.732;7.690;2023-10-09T13:42:53;25.20;99.90
61412;DHT22;47278;49.732;7.690;2023-10-09T13:45:27;25.10;99.90
61412;DHT22;47278;49.732;7.690;2023-10-09T13:47:53;25.40;99.90
61412;DHT22;47278;49.732;7.690;2023-10-09T13:50:20;25.90;99.90
61412;DHT22;47278;49.732;7.690;2023-10-09T13:52:47;26.20;99.90
61412;DHT22;47278;49.732;7.690;2023-10-09T13:55:13;25.70;99.90
61412;DHT22;47278;49.732;7.690;2023-10-09T13:57:42;26.00;99.90
61412;DHT22;47278;49.732;7.690;2023-10-09T14:00:14;26.00;99.90
61412;DHT22;47278;49.732;7.690;2023-10-09T14:02:44;26.00;99.90
61412;DHT22;47278;49.732;7.690;2023-10-09T14:05:12;25.80;99.90
61412;DHT22;47278;49.732;7.690;2023-10-09T14:07:37;25.60;99.90
61412;DHT22;47278;49.732;7.690;2023-10-09T14:10:03;25.70;99.90
61412;DHT22;47278;49.732;7.690;2023-10-09T14:12:43;26.10;99.90
61412;DHT22;47278;49.732;7.690;2023-10-09T14:15:09;25.90;99.90
61412;DHT22;47278;49.732;7.690;2023-10-09T14:17:42;25.80;99.90
61412;DHT22;47278;49.732;7.690;2023-10-09T14:20:07;25.90;99.90
61412;DHT22;47278;49.732;7.690;2023-10-09T14:22:53;26.10;99.90
61412;DHT22;47278;49.732;7.690;2023-10-09T14:25:19;26.00;99.90
61412;DHT22;47278;49.732;7.690;2023-10-09T14:27:46;26.80;99.90
61412;DHT22;47278;49.732;7.690;2023-10-09T14:30:13;27.80;99.90
61412;DHT22;47278;49.732;7.690;2023-10-09T14:32:48;27.50;99.90
61412;DHT22;47278;49.732;7.690;2023-10-09T14:35:16;27.80;99.90
61412;DHT22;47278;49.732;7.690;2023-10-09T14:37:46;29.60;99.90
61412;DHT22;47278;49.732;7.690;2023-10-09T14:40:12;29.40;99.90
61412;DHT22;47278;49.732;7.690;2023-10-09T14:42:46;30.30;99.90
61412;DHT22;47278;49.732;7.690;2023-10-09T14:45:12;28.70;99.90
61412;DHT22;47278;49.732;7.690;2023-10-09T14:47:41;28.70;99.90
61412;DHT22;47278;49.732;7.690;2023-10-09T14:50:07;28.90;99.90
61412;DHT22;47278;49.732;7.690;2023-10-09T14:52:34;29.20;99.90
61412;DHT22;47278;49.732;7.690;2023-10-09T14:55:04;28.50;99.90
61412;DHT22;47278;49.732;7.690;2023-10-09T14:57:30;28.40;99.90
61412;DHT22;47278;49.732;7.690;2023-10-09T14:59:59;28.30;99.90
61412;DHT22;47278;49.732;7.690;2023-10-09T15:02:25;27.00;99.90
61412;DHT22;47278;49.732;7.690;2023-10-09T15:04:51;27.30;99.90
61412;DHT22;47278;49.732;7.690;2023-10-09T15:07:18;27.80;99.90
61412;DHT22;47278;49.732;7.690;2023-10-09T15:09:44;27.50;99.90
61412;DHT22;47278;49.732;7.690;2023-10-09T15:12:10;27.30;99.90
61412;DHT22;47278;49.732;7.690;2023-10-09T15:14:36;26.50;99.90
61412;DHT22;47278;49.732;7.690;2023-10-09T15:17:02;25.90;99.90
61412;DHT22;47278;49.732;7.690;2023-10-09T15:19:28;25.10;99.90
61412;DHT22;47278;49.732;7.690;2023-10-09T15:21:56;24.80;99.90
61412;DHT22;47278;49.732;7.690;2023-10-09T15:24:24;24.40;99.90
61412;DHT22;47278;49.732;7.690;2023-10-09T15:26:50;23.90;99.90
61412;DHT22;47278;49.732;7.690;2023-10-09T15:29:25;23.70;99.90
61412;DHT22;47278;49.732;7.690;2023-10-09T15:31:56;23.50;99.90
61412;DHT22;47278;49.732;7.690;2023-10-09T15:34:21;23.30;99.90
61412;DHT22;47278;49.732;7.690;2023-10-09T15:36:48;23.30;99.90
61412;DHT22;47278;49.732;7.690;2023-10-09T15:39:14;23.20;99.90
61412;DHT22;47278;49.732;7.690;2023-10-09T15:41:47;23.20;99.90
61412;DHT22;47278;49.732;7.690;2023-10-09T15:44:14;23.10;99.90
61412;DHT22;47278;49.732;7.690;2023-10-09T15:46:40;23.00;99.90
61412;DHT22;47278;49.732;7.690;2023-10-09T15:49:05;22.80;99.90
61412;DHT22;47278;49.732;7.690;2023-10-09T15:51:38;22.60;99.90
61412;DHT22;47278;49.732;7.690;2023-10-09T15:54:04;22.50;99.90
61412;DHT22;47278;49.732;7.690;2023-10-09T15:56:29;22.20;99.90
61412;DHT22;47278;49.732;7.690;2023-10-09T15:58:55;22.10;99.90
61412;DHT22;47278;49.732;7.690;2023-10-09T16:01:21;22.10;99.90
61412;DHT22;47278;49.732;7.690;2023-10-09T16:03:47;22.10;99.90
61412;DHT22;47278;49.732;7.690;2023-10-09T16:06:14;22.00;99.90
61412;DHT22;47278;49.732;7.690;2023-10-09T16:08:45;21.90;99.90
61412;DHT22;47278;49.732;7.690;2023-10-09T16:11:15;21.80;99.90
61412;DHT22;47278;49.732;7.690;2023-10-09T16:13:41;21.70;99.90
61412;DHT22;47278;49.732;7.690;2023-10-09T16:16:06;21.60;99.90
61412;DHT22;47278;49.732;7.690;2023-10-09T16:18:34;21.60;99.90
61412;DHT22;47278;49.732;7.690;2023-10-09T16:20:59;21.50;99.90
61412;DHT22;47278;49.732;7.690;2023-10-09T16:23:27;21.20;99.90
61412;DHT22;47278;49.732;7.690;2023-10-09T16:25:53;21.50;99.90
61412;DHT22;47278;49.732;7.690;2023-10-09T16:28:18;21.20;99.90